Time;durP1;ratioP1;P1;durP2;ratioP2;P2;SDS_P1;SDS_P2;PMS_P1;PMS_P2;Temp;Humidity;BMP_temperature;BMP_pressure;BME280_temperature;BME280_humidity;BME280_pressure;Samples;Min_cycle;Max_cycle;Signal;HPM_P1;HPM_P2
2023/03/15 00:01:48;;;;;;;17.57;5.83;;;;;;;;;;5023750;28;20052;-76
2023/03/15 00:04:14;;;;;;;19.20;5.77;;;;;;;;;;5028942;28;20298;-76
2023/03/15 00:06:43;;;;;;;12.73;4.07;;;;;;;;;;5020059;28;20334;-76
2023/03/15 00:09:08;;;;;;;13.73;4.43;;;;;;;;;;5036159;28;20284;-75
2023/03/15 00:11:34;;;;;;;14.97;5.00;;;;;;;;;;5037513;28;20314;-76
2023/03/15 00:14:01;;;;;;;19.37;5.00;;;;;;;;;;5030829;28;20454;-76
2023/03/15 00:16:27;;;;;;;21.57;5.43;;;;;;;;;;5021727;28;20021;-76
2023/03/15 00:18:54;;;;;;;13.00;4.13;;;;;;;;;;5020675;28;20280;-76
2023/03/15 00:21:21;;;;;;;14.37;3.80;;;;;;;;;;5035464;28;20732;-76
2023/03/15 00:23:47;;;;;;;16.23;4.27;;;;;;;;;;5019533;28;20280;-76
2023/03/15 00:26:13;;;;;;;14.57;3.80;;;;;;;;;;5033351;28;20293;-76
2023/03/15 00:28:39;;;;;;;14.77;4.13;;;;;;;;;;5014530;28;20322;-76
2023/03/15 00:31:08;;;;;;;12.77;3.53;;;;;;;;;;5034216;28;20045;-76
2023/03/15 00:33:34;;;;;;;14.53;4.00;;;;;;;;;;5034477;28;20049;-76
2023/03/15 00:36:03;;;;;;;16.77;3.83;;;;;;;;;;5020731;28;20292;-75
2023/03/15 00:38:32;;;;;;;14.57;3.80;;;;;;;;;;5033626;28;20450;-76
2023/03/15 00:40:58;;;;;;;13.33;4.53;;;;;;;;;;5034228;28;20021;-76
2023/03/15 00:43:24;;;;;;;16.87;3.90;;;;;;;;;;5036981;28;20033;-76
2023/03/15 00:45:50;;;;;;;15.40;4.03;;;;;;;;;;5018559;28;20038;-76
2023/03/15 00:48:16;;;;;;;16.17;4.63;;;;;;;;;;5034573;28;20025;-76
2023/03/15 00:50:44;;;;;;;19.20;4.37;;;;;;;;;;5014989;28;20417;-75
2023/03/15 00:53:10;;;;;;;14.33;4.60;;;;;;;;;;5012099;28;20108;-75
2023/03/15 00:55:36;;;;;;;25.73;4.87;;;;;;;;;;5024879;28;20124;-75
2023/03/15 00:58:02;;;;;;;17.57;5.63;;;;;;;;;;5011215;28;20022;-75
2023/03/15 01:00:28;;;;;;;25.40;5.13;;;;;;;;;;5026240;28;20294;-75
2023/03/15 01:02:55;;;;;;;13.47;4.47;;;;;;;;;;5012409;28;21531;-77
2023/03/15 01:05:21;;;;;;;21.73;5.20;;;;;;;;;;5026827;28;20036;-76
2023/03/15 01:07:47;;;;;;;20.53;5.37;;;;;;;;;;5011990;28;20283;-75
2023/03/15 01:10:16;;;;;;;26.93;6.57;;;;;;;;;;5012183;28;20280;-76
2023/03/15 01:12:42;;;;;;;16.97;6.17;;;;;;;;;;5026395;28;20022;-76
2023/03/15 01:15:10;;;;;;;18.77;6.53;;;;;;;;;;5024241;28;20288;-75
2023/03/15 01:17:36;;;;;;;23.77;7.20;;;;;;;;;;5010183;28;20033;-76
2023/03/15 01:20:04;;;;;;;22.17;6.40;;;;;;;;;;5027706;28;20286;-76
2023/03/15 01:22:30;;;;;;;14.13;7.33;;;;;;;;;;5007605;28;20276;-75
2023/03/15 01:24:56;;;;;;;19.30;7.03;;;;;;;;;;5012648;28;20831;-74
2023/03/15 01:27:22;;;;;;;18.57;6.80;;;;;;;;;;5013047;28;20033;-75
2023/03/15 01:29:48;;;;;;;24.37;7.03;;;;;;;;;;5011289;28;20029;-75
2023/03/15 01:32:16;;;;;;;17.53;6.97;;;;;;;;;;5025134;28;20322;-75
2023/03/15 01:34:42;;;;;;;29.63;8.83;;;;;;;;;;5027900;28;20029;-75
2023/03/15 01:37:09;;;;;;;25.70;8.30;;;;;;;;;;5026319;28;20295;-76
2023/03/15 01:39:35;;;;;;;20.30;7.63;;;;;;;;;;5011087;28;20033;-74
2023/03/15 01:42:01;;;;;;;23.97;8.47;;;;;;;;;;5027644;28;20315;-74
2023/03/15 01:44:47;;;;;;;20.83;7.53;;;;;;;;;;5008112;28;20804;-76
2023/03/15 01:47:13;;;;;;;17.10;6.60;;;;;;;;;;5028789;28;20310;-75
2023/03/15 01:49:39;;;;;;;14.80;5.83;;;;;;;;;;5011429;28;20280;-75
2023/03/15 01:52:11;;;;;;;15.17;5.93;;;;;;;;;;5025752;28;20053;-75
2023/03/15 01:54:43;;;;;;;12.05;5.55;;;;;;;;;;5024543;28;20029;-75
2023/03/15 01:57:16;;;;;;;22.85;7.28;;;;;;;;;;5025686;28;20060;-75
2023/03/15 01:59:43;;;;;;;19.30;6.75;;;;;;;;;;5023358;28;20088;-75
2023/03/15 02:02:13;;;;;;;16.87;7.47;;;;;;;;;;5011475;28;20034;-76
2023/03/15 02:04:45;;;;;;;17.87;8.57;;;;;;;;;;5011396;28;20720;-75
2023/03/15 02:07:12;;;;;;;16.83;8.48;;;;;;;;;;5028268;28;20302;-75
2023/03/15 02:09:58;;;;;;;18.70;8.73;;;;;;;;;;5008552;28;20048;-76
2023/03/15 02:12:25;;;;;;;26.17;9.23;;;;;;;;;;5029692;28;20342;-77
2023/03/15 02:14:52;;;;;;;22.33;8.23;;;;;;;;;;5012056;28;21885;-76
2023/03/15 02:17:21;;;;;;;17.00;8.37;;;;;;;;;;5012113;28;20287;-76
2023/03/15 02:20:04;;;;;;;19.57;8.93;;;;;;;;;;5025163;28;20287;-75
2023/03/15 02:22:41;;;;;;;16.80;8.50;;;;;;;;;;5028444;28;20298;-77
2023/03/15 02:25:20;;;;;;;22.73;10.23;;;;;;;;;;5026312;28;20288;-77
2023/03/15 02:27:46;;;;;;;19.87;9.37;;;;;;;;;;5026974;28;20393;-77
2023/03/15 02:30:12;;;;;;;20.13;9.07;;;;;;;;;;5026140;28;20359;-77
2023/03/15 02:32:40;;;;;;;22.20;9.60;;;;;;;;;;5016078;28;20150;-79
2023/03/15 02:35:09;;;;;;;17.23;8.83;;;;;;;;;;5014122;28;20277;-79
2023/03/15 02:37:37;;;;;;;17.93;9.93;;;;;;;;;;5025160;28;20273;-77
2023/03/15 02:40:11;;;;;;;17.53;9.50;;;;;;;;;;5016187;28;20272;-79
2023/03/15 02:42:37;;;;;;;19.00;8.93;;;;;;;;;;5030915;28;20298;-80
2023/03/15 02:45:03;;;;;;;21.27;10.10;;;;;;;;;;5018106;28;20342;-80
2023/03/15 02:47:32;;;;;;;20.20;9.17;;;;;;;;;;5018304;28;20035;-79
2023/03/15 02:49:58;;;;;;;22.17;9.70;;;;;;;;;;5017275;28;20276;-78
2023/03/15 02:52:25;;;;;;;21.47;9.13;;;;;;;;;;5024158;28;20809;-79
2023/03/15 02:54:52;;;;;;;21.90;9.93;;;;;;;;;;5030546;28;20056;-79
2023/03/15 02:57:21;;;;;;;23.47;8.83;;;;;;;;;;5031356;28;20639;-79
2023/03/15 02:59:49;;;;;;;17.90;9.77;;;;;;;;;;5047189;28;20580;-79
2023/03/15 03:02:15;;;;;;;16.77;9.30;;;;;;;;;;5027720;28;20434;-78
2023/03/15 03:04:41;;;;;;;21.93;10.27;;;;;;;;;;5017756;28;20288;-80
2023/03/15 03:07:07;;;;;;;16.00;8.80;;;;;;;;;;5005197;28;20032;-80
2023/03/15 03:09:33;;;;;;;17.23;9.23;;;;;;;;;;5017408;28;20349;-79
2023/03/15 03:11:59;;;;;;;21.07;9.63;;;;;;;;;;5033869;28;20351;-77
2023/03/15 03:14:25;;;;;;;23.63;10.33;;;;;;;;;;5016098;28;20464;-78
2023/03/15 03:16:51;;;;;;;14.37;7.73;;;;;;;;;;5034991;28;20025;-78
2023/03/15 03:19:17;;;;;;;16.93;8.33;;;;;;;;;;5034979;28;20268;-78
2023/03/15 03:21:43;;;;;;;14.50;7.83;;;;;;;;;;5017132;28;20367;-78
2023/03/15 03:24:10;;;;;;;19.63;7.80;;;;;;;;;;5017607;28;20664;-78
2023/03/15 03:26:37;;;;;;;14.63;8.50;;;;;;;;;;5048885;28;20354;-77
2023/03/15 03:29:04;;;;;;;20.70;9.03;;;;;;;;;;5011096;28;20268;-78
2023/03/15 03:31:33;;;;;;;19.37;8.70;;;;;;;;;;5017239;28;20728;-77
2023/03/15 03:34:00;;;;;;;17.57;9.10;;;;;;;;;;5017490;28;20276;-77
2023/03/15 03:36:28;;;;;;;18.73;9.03;;;;;;;;;;5019953;28;20265;-77
2023/03/15 03:38:55;;;;;;;19.63;9.70;;;;;;;;;;5035725;28;20617;-78
2023/03/15 03:41:26;;;;;;;17.83;9.43;;;;;;;;;;5031661;28;20737;-77
2023/03/15 03:43:55;;;;;;;17.63;9.10;;;;;;;;;;5022342;28;20264;-77
2023/03/15 03:46:21;;;;;;;19.30;9.97;;;;;;;;;;5025464;28;20326;-76
2023/03/15 03:48:49;;;;;;;23.17;9.47;;;;;;;;;;5020118;28;20288;-77
2023/03/15 03:51:15;;;;;;;21.73;10.47;;;;;;;;;;5027615;28;20108;-77
2023/03/15 03:53:41;;;;;;;18.80;9.77;;;;;;;;;;5023468;28;20420;-77
2023/03/15 03:56:07;;;;;;;19.53;9.40;;;;;;;;;;5019947;28;20048;-76
2023/03/15 03:58:34;;;;;;;17.73;10.53;;;;;;;;;;5024691;28;20276;-76
2023/03/15 04:01:00;;;;;;;18.00;9.23;;;;;;;;;;5018869;28;20264;-76
2023/03/15 04:03:26;;;;;;;21.47;10.40;;;;;;;;;;5016479;28;20591;-76
2023/03/15 04:05:56;;;;;;;22.50;9.67;;;;;;;;;;5010899;28;20303;-77
2023/03/15 04:08:25;;;;;;;20.27;10.27;;;;;;;;;;5031638;28;20314;-76
2023/03/15 04:10:56;;;;;;;17.97;9.13;;;;;;;;;;5010998;28;20713;-76
2023/03/15 04:13:22;;;;;;;21.13;9.17;;;;;;;;;;5037399;28;20356;-76
2023/03/15 04:15:56;;;;;;;19.67;9.50;;;;;;;;;;5030978;28;20355;-76
2023/03/15 04:18:22;;;;;;;21.97;9.47;;;;;;;;;;5035826;28;20280;-76
2023/03/15 04:20:48;;;;;;;18.00;8.97;;;;;;;;;;5021970;28;20651;-77
2023/03/15 04:23:15;;;;;;;20.67;9.33;;;;;;;;;;5004581;28;20033;-76
2023/03/15 04:25:41;;;;;;;18.63;9.93;;;;;;;;;;5030214;28;20295;-76
2023/03/15 04:28:09;;;;;;;20.93;10.43;;;;;;;;;;5037237;28;20287;-76
2023/03/15 04:30:35;;;;;;;17.70;9.80;;;2.90;99.90;;;;;;5020018;28;20330;-76
2023/03/15 04:33:02;;;;;;;24.83;10.07;;;1.50;99.90;;;;;;5038880;28;20264;-77
2023/03/15 04:35:33;;;;;;;18.77;9.40;;;1.50;99.90;;;;;;5024095;28;20330;-77
2023/03/15 04:37:59;;;;;;;16.10;9.67;;;1.30;99.90;;;;;;5015326;28;20357;-77
2023/03/15 04:40:28;;;;;;;20.40;9.93;;;1.30;99.90;;;;;;5033658;28;20739;-77
2023/03/15 04:42:55;;;;;;;17.20;9.57;;;1.20;99.90;;;;;;5019363;28;20025;-77
2023/03/15 04:45:22;;;;;;;18.70;9.50;;;1.20;99.90;;;;;;5019010;28;20296;-77
2023/03/15 04:47:49;;;;;;;20.43;10.07;;;1.10;99.90;;;;;;5019561;28;20370;-77
2023/03/15 04:50:15;;;;;;;18.97;10.60;;;1.10;99.90;;;;;;5033254;28;20372;-77
2023/03/15 04:52:41;;;;;;;22.10;11.30;;;1.00;99.90;;;;;;5019648;28;20284;-78
2023/03/15 04:55:07;;;;;;;21.13;11.70;;;0.90;99.90;;;;;;5017622;28;20755;-77
2023/03/15 04:57:32;;;;;;;23.40;11.23;;;0.90;99.90;;;;;;5025920;28;20029;-77
2023/03/15 04:59:58;;;;;;;18.87;10.13;;;0.90;99.90;;;;;;5016882;28;20767;-78
2023/03/15 05:02:24;;;;;;;16.57;10.00;;;0.90;99.90;;;;;;5042129;28;20049;-77
2023/03/15 05:04:49;;;;;;;17.53;10.60;;;0.90;99.90;;;;;;5019969;28;20025;-77
2023/03/15 05:07:17;;;;;;;19.83;11.27;;;0.90;99.90;;;;;;5036117;28;20025;-77
2023/03/15 05:09:44;;;;;;;19.43;11.33;;;0.90;99.90;;;;;;5034142;28;20021;-77
2023/03/15 05:12:11;;;;;;;17.63;10.87;;;0.90;99.90;;;;;;5019527;28;20359;-77
2023/03/15 05:14:36;;;;;;;21.17;11.67;;;0.90;99.90;;;;;;5018126;28;20298;-77
2023/03/15 05:17:02;;;;;;;22.23;11.23;;;0.90;99.90;;;;;;5024153;28;20284;-77
2023/03/15 05:19:28;;;;;;;26.47;12.80;;;0.90;99.90;;;;;;5010449;28;20382;-77
2023/03/15 05:21:57;;;;;;;23.17;13.80;;;1.00;99.90;;;;;;5019151;28;20279;-76
2023/03/15 05:24:22;;;;;;;23.93;13.47;;;1.00;99.90;;;;;;5007072;28;20049;-76
2023/03/15 05:26:48;;;;;;;24.17;13.87;;;1.00;99.90;;;;;;5033592;28;20636;-76
2023/03/15 05:29:16;;;;;;;25.80;13.77;;;1.00;99.90;;;;;;5002350;28;20114;-77
2023/03/15 05:31:42;;;;;;;26.27;15.07;;;1.00;99.90;;;;;;5022253;28;20018;-77
2023/03/15 05:34:07;;;;;;;25.73;14.93;;;1.00;99.90;;;;;;5011811;28;20575;-77
2023/03/15 05:36:33;;;;;;;25.37;14.40;;;1.10;99.90;;;;;;5014651;28;20076;-77
2023/03/15 05:39:03;;;;;;;24.07;14.53;;;1.10;99.90;;;;;;5018468;28;20525;-77
2023/03/15 05:41:30;;;;;;;28.13;16.10;;;1.10;99.90;;;;;;5018533;28;20398;-77
2023/03/15 05:43:55;;;;;;;27.60;16.10;;;1.20;99.90;;;;;;5036693;28;20280;-77
2023/03/15 05:46:21;;;;;;;28.43;17.43;;;1.20;99.90;;;;;;5018146;28;20740;-76
2023/03/15 05:48:47;;;;;;;31.20;15.97;;;1.20;99.90;;;;;;5018124;28;20457;-77
2023/03/15 05:51:13;;;;;;;29.70;16.90;;;1.20;99.90;;;;;;5014224;28;20120;-76
2023/03/15 05:53:38;;;;;;;28.13;17.00;;;1.30;99.90;;;;;;5018213;28;20033;-77
2023/03/15 05:56:06;;;;;;;32.10;18.07;;;1.30;99.90;;;;;;5010732;28;20048;-77
2023/03/15 05:58:32;;;;;;;31.80;18.07;;;1.30;99.90;;;;;;5032302;28;20065;-77
2023/03/15 06:01:00;;;;;;;30.33;18.43;;;1.30;99.90;;;;;;5038971;28;20296;-76
2023/03/15 06:03:27;;;;;;;35.80;20.53;;;1.30;99.90;;;;;;5003210;28;20030;-77
2023/03/15 06:05:53;;;;;;;30.87;17.93;;;1.30;99.90;;;;;;5022239;28;20284;-77
2023/03/15 06:08:18;;;;;;;30.37;18.33;;;1.40;99.90;;;;;;5017868;28;20290;-76
2023/03/15 06:10:44;;;;;;;31.87;18.90;;;1.40;99.90;;;;;;5018120;28;20113;-76
2023/03/15 06:13:10;;;;;;;27.00;17.53;;;1.50;99.90;;;;;;5010198;28;20092;-76
2023/03/15 06:15:38;;;;;;;28.97;17.73;;;1.50;99.90;;;;;;5034335;28;20457;-76
2023/03/15 06:18:03;;;;;;;27.53;17.43;;;1.50;99.90;;;;;;5008673;28;20033;-76
2023/03/15 06:20:30;;;;;;;24.80;15.97;;;1.50;99.90;;;;;;5023654;28;20282;-76
2023/03/15 06:22:56;;;;;;;31.00;18.23;;;1.50;99.90;;;;;;5011045;28;20025;-76
2023/03/15 06:25:27;;;;;;;27.97;17.17;;;1.60;99.90;;;;;;5036284;28;20363;-76
2023/03/15 06:27:53;;;;;;;28.07;16.43;;;1.60;99.90;;;;;;5018230;28;20034;-76
2023/03/15 06:30:19;;;;;;;27.93;17.47;;;1.60;99.90;;;;;;5036993;28;20280;-76
2023/03/15 06:32:47;;;;;;;28.13;16.07;;;1.70;99.90;;;;;;5026175;28;20034;-75
2023/03/15 06:35:13;;;;;;;25.53;16.43;;;1.70;99.90;;;;;;5008494;28;20292;-76
2023/03/15 06:37:38;;;;;;;25.50;16.43;;;1.70;99.90;;;;;;5034560;28;20287;-76
2023/03/15 06:40:08;;;;;;;26.77;15.90;;;1.70;99.90;;;;;;5013404;28;20103;-76
2023/03/15 06:42:35;;;;;;;28.07;16.87;;;1.70;99.90;;;;;;5016880;28;20052;-76
2023/03/15 06:45:00;;;;;;;26.17;15.83;;;1.70;99.90;;;;;;5018358;28;20286;-76
2023/03/15 06:47:26;;;;;;;27.97;17.77;;;1.70;99.90;;;;;;5031617;28;20277;-76
2023/03/15 06:49:52;;;;;;;27.97;17.10;;;1.80;99.90;;;;;;4998399;28;20036;-76
2023/03/15 06:52:21;;;;;;;32.00;18.00;;;1.80;99.90;;;;;;5011457;28;20033;-76
2023/03/15 06:54:46;;;;;;;27.87;17.10;;;1.90;99.90;;;;;;5025824;28;20030;-76
2023/03/15 06:57:12;;;;;;;28.17;18.97;;;1.90;99.90;;;;;;5006776;28;20277;-76
2023/03/15 06:59:40;;;;;;;26.37;17.03;;;2.10;99.90;;;;;;5026229;28;20612;-75
2023/03/15 07:02:12;;;;;;;28.43;16.70;;;2.10;99.90;;;;;;5026170;28;20057;-76
2023/03/15 07:04:40;;;;;;;28.17;18.00;;;2.10;99.90;;;;;;5007001;28;20269;-74
2023/03/15 07:07:05;;;;;;;26.50;17.00;;;2.10;99.90;;;;;;5026827;28;20342;-76
2023/03/15 07:09:31;;;;;;;25.60;16.53;;;2.20;99.90;;;;;;5014043;28;20276;-76
2023/03/15 07:11:59;;;;;;;26.03;16.97;;;2.20;99.90;;;;;;5012912;28;20025;-76
2023/03/15 07:14:24;;;;;;;28.83;17.57;;;2.30;99.90;;;;;;5030322;28;20034;-76
2023/03/15 07:16:50;;;;;;;22.33;16.10;;;2.40;99.90;;;;;;5013370;28;20355;-76
2023/03/15 07:19:16;;;;;;;24.07;17.63;;;2.40;99.90;;;;;;5012205;28;20365;-76
2023/03/15 07:21:41;;;;;;;25.30;16.53;;;2.40;99.90;;;;;;5029509;28;20109;-76
2023/03/15 07:24:07;;;;;;;27.00;16.83;;;2.40;99.90;;;;;;5008978;28;20037;-75
2023/03/15 07:26:32;;;;;;;27.47;17.80;;;2.30;99.90;;;;;;5010858;28;20033;-75
2023/03/15 07:28:58;;;;;;;27.33;17.07;;;2.30;99.90;;;;;;5028809;28;20030;-75
2023/03/15 07:31:26;;;;;;;24.67;17.30;;;2.40;99.90;;;;;;5010726;28;20395;-75
2023/03/15 07:33:52;;;;;;;22.33;16.23;;;2.40;99.90;;;;;;5011667;28;20017;-76
2023/03/15 07:36:17;;;;;;;22.73;16.60;;;2.50;99.90;;;;;;5010949;28;20283;-75
2023/03/15 07:38:43;;;;;;;22.63;15.90;;;2.50;99.90;;;;;;5028736;28;20045;-75
2023/03/15 07:41:11;;;;;;;26.40;18.23;;;2.50;99.90;;;;;;5011253;28;20429;-75
2023/03/15 07:43:36;;;;;;;25.50;17.50;;;2.50;99.90;;;;;;5013018;28;20036;-76
2023/03/15 07:46:02;;;;;;;32.73;19.40;;;2.40;99.90;;;;;;5014001;28;20648;-76
2023/03/15 07:48:30;;;;;;;33.17;20.97;;;2.30;99.90;;;;;;5009726;28;20025;-75
2023/03/15 07:50:58;;;;;;;34.23;20.33;;;2.30;99.90;;;;;;5027587;28;20032;-75
2023/03/15 07:53:24;;;;;;;34.27;21.33;;;2.30;99.90;;;;;;5010123;28;20881;-77
2023/03/15 07:55:52;;;;;;;35.27;21.97;;;2.30;99.90;;;;;;5027124;28;20276;-75
2023/03/15 07:58:20;;;;;;;35.90;22.37;;;2.40;99.90;;;;;;5027566;28;20026;-75
2023/03/15 08:00:46;;;;;;;37.50;22.87;;;2.40;99.90;;;;;;5026823;28;20307;-76
2023/03/15 08:03:12;;;;;;;38.47;22.97;;;2.40;99.90;;;;;;5009925;28;20306;-76
2023/03/15 08:05:37;;;;;;;44.70;24.93;;;2.50;99.90;;;;;;5012351;28;20292;-76
2023/03/15 08:08:05;;;;;;;41.53;23.63;;;2.50;99.90;;;;;;5012860;28;20795;-75
2023/03/15 08:10:31;;;;;;;33.33;22.10;;;2.50;99.90;;;;;;5010191;28;20468;-76
2023/03/15 08:12:57;;;;;;;33.20;21.10;;;2.60;99.90;;;;;;5010826;28;20281;-76
2023/03/15 08:15:23;;;;;;;39.10;24.77;;;2.60;99.90;;;;;;5028354;28;20030;-76
2023/03/15 08:17:49;;;;;;;37.13;22.20;;;2.70;99.90;;;;;;5010832;28;20416;-76
2023/03/15 08:20:18;;;;;;;34.77;21.80;;;2.70;99.90;;;;;;5026764;28;20041;-76
2023/03/15 08:22:51;;;;;;;37.40;22.70;;;2.70;99.90;;;;;;5027886;28;20021;-76
2023/03/15 08:25:21;;;;;;;39.73;23.03;;;2.70;99.90;;;;;;5026263;28;20735;-76
2023/03/15 08:27:47;;;;;;;31.83;20.80;;;2.80;99.90;;;;;;5028678;28;20276;-76
2023/03/15 08:30:15;;;;;;;33.87;19.57;;;2.90;99.90;;;;;;5010496;28;20331;-76
2023/03/15 08:32:44;;;;;;;28.57;18.80;;;3.00;99.90;;;;;;5013399;28;20276;-76
2023/03/15 08:35:15;;;;;;;28.53;18.20;;;3.20;99.90;;;;;;5011413;28;20056;-76
2023/03/15 08:37:45;;;;;;;25.63;16.40;;;3.30;99.90;;;;;;5029095;28;20018;-75
2023/03/15 08:40:14;;;;;;;24.67;15.73;;;3.30;99.90;;;;;;5030025;28;20061;-76
2023/03/15 08:42:40;;;;;;;22.70;14.93;;;3.40;99.90;;;;;;5009306;28;21052;-76
2023/03/15 08:45:07;;;;;;;21.90;14.00;;;3.40;99.90;;;;;;5011215;28;20051;-76
2023/03/15 08:47:36;;;;;;;20.97;13.63;;;3.50;99.90;;;;;;5027127;28;20036;-76
2023/03/15 08:50:13;;;;;;;22.57;14.33;;;3.60;99.90;;;;;;5025633;28;20029;-76
2023/03/15 08:52:39;;;;;;;26.37;14.67;;;3.60;99.90;;;;;;5012628;28;20030;-76
2023/03/15 08:55:05;;;;;;;24.47;15.70;;;3.70;99.90;;;;;;5018135;28;20499;-76
2023/03/15 08:57:32;;;;;;;28.10;18.10;;;3.70;99.90;;;;;;5024305;28;20135;-77
2023/03/15 09:00:06;;;;;;;22.60;16.07;;;3.60;99.90;;;;;;5016135;28;20433;-76
2023/03/15 09:02:35;;;;;;;27.53;17.47;;;3.60;99.90;;;;;;5006594;28;20033;-74
2023/03/15 09:05:01;;;;;;;26.47;17.70;;;3.70;99.90;;;;;;5016259;28;20044;-76
2023/03/15 09:07:26;;;;;;;26.60;15.53;;;3.70;99.90;;;;;;5014026;28;20498;-76
2023/03/15 09:09:53;;;;;;;27.90;16.80;;;3.90;99.90;;;;;;5025566;28;20021;-76
2023/03/15 09:12:19;;;;;;;25.17;15.50;;;4.00;99.90;;;;;;5020972;28;20109;-76
2023/03/15 09:14:46;;;;;;;22.97;14.43;;;4.10;99.90;;;;;;5017542;28;20022;-76
2023/03/15 09:17:12;;;;;;;18.10;12.23;;;4.20;99.90;;;;;;5018537;28;20039;-76
2023/03/15 09:19:40;;;;;;;16.60;7.07;;;4.30;99.90;;;;;;5016533;28;20035;-76
2023/03/15 09:22:06;;;;;;;10.77;7.67;;;4.30;99.90;;;;;;5028254;28;20397;-76
2023/03/15 09:24:32;;;;;;;13.07;7.10;;;4.30;99.90;;;;;;5017977;28;20425;-76
2023/03/15 09:26:57;;;;;;;14.57;7.73;;;4.30;99.90;;;;;;5012729;28;20032;-76
2023/03/15 09:29:23;;;;;;;18.17;5.83;;;4.30;99.90;;;;;;5031720;28;20029;-76
2023/03/15 09:31:49;;;;;;;8.43;4.30;;;4.00;99.90;;;;;;5033079;28;20021;-76
2023/03/15 09:34:16;;;;;;;10.57;5.27;;;3.80;99.90;;;;;;5018042;28;20025;-76
2023/03/15 09:36:44;;;;;;;10.37;4.20;;;3.70;99.90;;;;;;5011404;28;20045;-76
2023/03/15 09:39:10;;;;;;;7.63;3.80;;;3.70;99.90;;;;;;5013945;28;20040;-76
2023/03/15 09:41:42;;;;;;;11.77;4.00;;;3.70;99.90;;;;;;5026474;28;20045;-76
2023/03/15 09:44:29;;;;;;;12.05;4.70;;;3.60;99.90;;;;;;5027130;28;20025;-76
2023/03/15 09:47:23;;;;;;;13.27;4.67;;;3.80;99.90;;;;;;5028669;28;20025;-76
2023/03/15 09:49:52;;;;;;;14.60;4.33;;;3.80;99.90;;;;;;5021463;28;20018;-76
2023/03/15 09:52:23;;;;;;;9.70;3.77;;;3.80;99.90;;;;;;5006245;28;20037;-76
2023/03/15 09:54:56;;;;;;;15.57;5.13;;;3.70;99.90;;;;;;5030596;28;20075;-76
2023/03/15 09:57:42;;;;;;;16.05;3.67;;;3.70;99.90;;;;;;5015464;28;20341;-76
2023/03/15 10:00:18;;;;;;;8.80;2.83;;;3.80;99.90;;;;;;5026331;28;20034;-75
2023/03/15 10:02:54;;;;;;;10.13;3.83;;;3.80;99.90;;;;;;5019296;28;20064;-76
2023/03/15 10:05:26;;;;;;;5.03;3.13;;;3.80;99.90;;;;;;5031220;28;20032;-77
2023/03/15 10:07:52;;;;;;;9.07;3.67;;;3.90;99.90;;;;;;5028775;28;20017;-76
2023/03/15 10:10:23;;;;;;;13.77;4.00;;;4.00;99.90;;;;;;5021832;28;20030;-76
2023/03/15 10:13:02;;;;;;;7.00;3.37;;;4.00;99.90;;;;;;5025680;28;20057;-76
2023/03/15 10:15:49;;;;;;;10.90;3.50;;;4.00;99.90;;;;;;5031563;28;20014;-76
2023/03/15 10:18:47;;;;;;;10.00;4.10;;;4.20;99.90;;;;;;5015276;28;20032;-76
2023/03/15 10:21:45;;;;;;;8.83;3.70;;;4.50;99.90;;;;;;5019191;28;20065;-76
2023/03/15 10:24:38;;;;;;;9.57;3.10;;;4.60;99.90;;;;;;5005159;28;20022;-77
2023/03/15 10:27:13;;;;;;;;;;;4.70;99.90;;;;;;5045961;28;20445;-77
2023/03/15 10:29:38;;;;;;;10.43;3.40;;;4.60;99.90;;;;;;5017262;28;19955;-76
2023/03/15 10:32:06;;;;;;;12.77;3.63;;;4.80;99.90;;;;;;5006413;28;20026;-77
2023/03/15 10:34:31;;;;;;;6.67;2.70;;;5.00;99.90;;;;;;5013766;28;20044;-76
2023/03/15 10:36:57;;;;;;;12.70;3.77;;;5.20;99.90;;;;;;5022925;28;20057;-76
2023/03/15 10:39:26;;;;;;;14.33;2.73;;;5.30;99.90;;;;;;5011251;28;20036;-76
2023/03/15 10:41:52;;;;;;;7.87;2.50;;;5.30;99.90;;;;;;5015776;28;20026;-76
2023/03/15 10:44:27;;;;;;;10.67;3.50;;;5.30;99.90;;;;;;5018917;28;20045;-76
2023/03/15 10:47:00;;;;;;;8.07;3.10;;;5.20;99.90;;;;;;5018392;28;20358;-76
2023/03/15 10:49:44;;;;;;;11.53;3.30;;;5.20;99.90;;;;;;5031487;28;20397;-76
2023/03/15 10:52:41;;;;;;;6.07;2.20;;;5.20;99.90;;;;;;5008752;28;20045;-76
2023/03/15 10:55:20;;;;;;;16.60;3.73;;;5.10;99.90;;;;;;5021437;28;20022;-76
2023/03/15 10:57:55;;;;;;;8.17;2.90;;;5.20;99.90;;;;;;5014639;28;20353;-76
2023/03/15 11:00:35;;;;;;;10.57;3.23;;;5.40;99.90;;;;;;5016434;28;20030;-75
2023/03/15 11:03:06;;;;;;;6.77;2.80;;;5.60;99.90;;;;;;5027918;28;20028;-76
2023/03/15 11:05:44;;;;;;;6.43;2.70;;;5.90;99.90;;;;;;5026522;28;20029;-76
2023/03/15 11:08:15;;;;;;;11.30;3.23;;;6.20;99.90;;;;;;5021594;28;20781;-76
2023/03/15 11:10:43;;;;;;;7.40;3.20;;;6.40;99.90;;;;;;5036751;28;20032;-76
2023/03/15 11:13:21;;;;;;;15.57;3.80;;;6.50;99.90;;;;;;5010498;28;20025;-76
2023/03/15 11:16:06;;;;;;;7.97;3.17;;;6.50;99.90;;;;;;5027833;28;20123;-77
2023/03/15 11:18:43;;;;;;;16.30;4.00;;;6.60;99.90;;;;;;5022436;28;20064;-76
2023/03/15 11:21:13;;;;;;;8.57;3.80;;;6.10;99.90;;;;;;5020887;28;20056;-76
2023/03/15 11:23:42;;;;;;;10.03;3.37;;;6.10;99.90;;;;;;5018629;28;20034;-76
2023/03/15 11:26:21;;;;;;;10.83;3.77;;;6.20;99.90;;;;;;5031560;28;20053;-75
2023/03/15 11:28:51;;;;;;;10.10;3.33;;;6.30;99.90;;;;;;5016154;28;20434;-76
2023/03/15 11:31:20;;;;;;;6.87;2.40;;;6.40;99.90;;;;;;5008836;28;20364;-76
2023/03/15 11:34:10;;;;;;;10.73;2.97;;;6.50;99.90;;;;;;5033372;28;20021;-76
2023/03/15 11:36:41;;;;;;;14.80;4.40;;;6.60;99.90;;;;;;5023419;28;20029;-76
2023/03/15 11:39:14;;;;;;;6.53;3.00;;;6.60;99.90;;;;;;5022456;28;20342;-76
2023/03/15 11:41:58;;;;;;;10.37;2.57;;;6.50;99.90;;;;;;5016720;28;20113;-76
2023/03/15 11:44:53;;;;;;;9.23;1.67;;;6.60;99.90;;;;;;5014932;28;20044;-77
2023/03/15 11:47:42;;;;;;;5.97;2.17;;;6.50;99.90;;;;;;5024790;28;20442;-76
2023/03/15 11:50:12;;;;;;;8.73;2.90;;;6.30;99.90;;;;;;5027186;28;20104;-76
2023/03/15 11:52:38;;;;;;;13.13;3.13;;;6.30;99.90;;;;;;5004107;28;20034;-76
2023/03/15 11:55:04;;;;;;;8.77;2.90;;;6.40;99.90;;;;;;5024069;28;20040;-76
2023/03/15 11:57:46;;;;;;;9.03;2.23;;;6.50;99.90;;;;;;5033127;28;20029;-76
2023/03/15 12:00:40;;;;;;;7.67;2.53;;;6.50;99.90;;;;;;5026270;28;20105;-76
2023/03/15 12:03:33;;;;;;;5.20;2.03;;;6.70;99.90;;;;;;4998936;28;20042;-76
2023/03/15 12:06:04;;;;;;;8.18;2.20;;;7.00;99.90;;;;;;5020244;28;20091;-76
2023/03/15 12:08:33;;;;;;;6.17;2.80;;;7.40;99.90;;;;;;5033463;28;20461;-76
2023/03/15 12:10:59;;;;;;;6.30;2.43;;;7.70;99.90;;;;;;5034012;28;20083;-76
2023/03/15 12:13:31;;;;;;;8.13;2.57;;;7.70;99.90;;;;;;5021445;28;20400;-76
2023/03/15 12:15:59;;;;;;;9.93;3.40;;;7.90;99.90;;;;;;5029131;28;20022;-77
2023/03/15 12:18:38;;;;;;;5.73;2.10;;;8.20;99.90;;;;;;5018163;28;20025;-76
2023/03/15 12:21:14;;;;;;;7.10;2.20;;;8.50;99.90;;;;;;5029945;28;20113;-76
2023/03/15 12:23:42;;;;;;;10.17;2.27;;;8.40;99.90;;;;;;5020104;28;20021;-77
2023/03/15 12:26:25;;;;;;;6.43;1.97;;;8.40;99.90;;;;;;5019322;28;20022;-76
2023/03/15 12:28:50;;;;;;;12.43;2.08;;;8.20;99.90;;;;;;5001808;28;20026;-76
2023/03/15 12:31:16;;;;;;;4.40;1.10;;;8.40;99.90;;;;;;5027342;28;20028;-76
2023/03/15 12:33:51;;;;;;;5.23;1.67;;;8.50;99.90;;;;;;5020319;28;20025;-76
2023/03/15 12:36:40;;;;;;;7.20;2.10;;;8.70;99.90;;;;;;5019363;28;20048;-75
2023/03/15 12:39:15;;;;;;;5.37;1.73;;;8.70;99.90;;;;;;5002693;28;20398;-77
2023/03/15 12:41:41;;;;;;;7.60;2.20;;;8.80;99.90;;;;;;5032323;28;20358;-76
2023/03/15 12:44:38;;;;;;;7.00;1.93;;;8.70;99.90;;;;;;5029272;28;20097;-77
2023/03/15 12:47:11;;;;;;;5.13;1.53;;;8.30;99.90;;;;;;5017055;28;20025;-76
2023/03/15 12:49:45;;;;;;;7.87;1.97;;;8.20;99.90;;;;;;5022005;28;20026;-76
2023/03/15 12:52:12;;;;;;;4.30;1.70;;;8.40;99.90;;;;;;5012842;28;20038;-77
2023/03/15 12:54:53;;;;;;;10.97;1.97;;;8.50;99.90;;;;;;5009065;28;20030;-76
2023/03/15 12:57:26;;;;;;;5.13;1.83;;;8.40;99.90;;;;;;5008996;28;20490;-76
2023/03/15 12:59:54;;;;;;;5.93;1.63;;;8.20;99.90;;;;;;5012359;28;20121;-77
2023/03/15 13:02:25;;;;;;;8.13;1.93;;;8.50;99.90;;;;;;5025307;28;20128;-76
2023/03/15 13:05:17;;;;;;;5.63;1.80;;;8.60;99.90;;;;;;5011964;28;20094;-76
2023/03/15 13:08:04;;;;;;;5.57;2.20;;;8.50;99.90;;;;;;5025439;28;20454;-76
2023/03/15 13:10:44;;;;;;;8.57;2.00;;;8.70;99.90;;;;;;5010776;28;20049;-76
2023/03/15 13:13:09;;;;;;;6.33;1.97;;;8.90;99.90;;;;;;5011592;28;20052;-76
2023/03/15 13:16:04;;;;;;;8.00;1.97;;;9.60;99.90;;;;;;5012043;28;20666;-75
2023/03/15 13:18:40;;;;;;;8.40;2.27;;;10.70;99.90;;;;;;5025758;28;20045;-76
2023/03/15 13:21:25;;;;;;;6.20;1.77;;;11.70;96.30;;;;;;5026781;28;20088;-75
2023/03/15 13:23:54;;;;;;;2.90;1.10;;;11.70;91.80;;;;;;5008740;28;20032;-76
2023/03/15 13:26:36;;;;;;;5.20;1.80;;;12.00;91.80;;;;;;5008802;28;20064;-76
2023/03/15 13:29:16;;;;;;;5.73;1.60;;;11.50;88.20;;;;;;5027943;28;20646;-76
2023/03/15 13:31:43;;;;;;;3.73;1.40;;;;;;;;;;5027197;28;20083;-76